Sanliurfa, Turkey
Current Conditions -  °F | °C
As of 12:20 PM on Friday 31 Oct 2014 (Local Time) from LTCS Reporting Station
Broken Clouds Broken Clouds  
Wind Chill: 57°   Ceiling: 3000
Heat Index: 57°   Visibility: 4mi
Dew Point: 52°   Wind: 9mph
Humidity: 82%   Direction: 240°WSW
Pressure: 29.91"   Gusts: NA
Location:  37.15°N, 38.8°E
Report Text: LTCS 311020Z 24008KT 7000 FEW004 BKN030 14/11 Q1013
Loading
Personal Weather Stations






























Interactive Weather Map
Tropical Storm Tracking
New forecast layout! Learn more

10-Day Weather Forecast

Advertisements
Track Severe Weather on mobile